sensor_id;sensor_type;location;lat;lon;timestamp;temperature;humidity
56298;DHT22;42208;6.376;-10.782;2022-09-09T00:01:30;26.10;99.90
56298;DHT22;42208;6.376;-10.782;2022-09-09T00:15:03;26.10;99.90
56298;DHT22;42208;6.376;-10.782;2022-09-09T00:17:47;26.10;99.90
56298;DHT22;42208;6.376;-10.782;2022-09-09T00:23:09;26.10;99.90
56298;DHT22;42208;6.376;-10.782;2022-09-09T00:25:46;26.10;99.90
56298;DHT22;42208;6.376;-10.782;2022-09-09T00:28:22;26.10;99.90
56298;DHT22;42208;6.376;-10.782;2022-09-09T00:30:51;26.10;99.90
56298;DHT22;42208;6.376;-10.782;2022-09-09T00:33:24;26.10;99.90
56298;DHT22;42208;6.376;-10.782;2022-09-09T00:36:02;26.10;99.90
56298;DHT22;42208;6.376;-10.782;2022-09-09T00:38:36;26.10;99.90
56298;DHT22;42208;6.376;-10.782;2022-09-09T00:41:41;26.10;99.90
56298;DHT22;42208;6.376;-10.782;2022-09-09T00:44:34;26.00;99.90
56298;DHT22;42208;6.376;-10.782;2022-09-09T00:52:23;26.00;99.90
56298;DHT22;42208;6.376;-10.782;2022-09-09T00:57:36;25.90;99.90
56298;DHT22;42208;6.376;-10.782;2022-09-09T01:00:32;25.90;99.90
56298;DHT22;42208;6.376;-10.782;2022-09-09T01:03:18;25.90;99.90
56298;DHT22;42208;6.376;-10.782;2022-09-09T01:14:22;25.90;99.90
56298;DHT22;42208;6.376;-10.782;2022-09-09T01:16:55;25.90;99.90
56298;DHT22;42208;6.376;-10.782;2022-09-09T01:19:27;26.00;99.90
56298;DHT22;42208;6.376;-10.782;2022-09-09T01:22:16;26.00;99.90
56298;DHT22;42208;6.376;-10.782;2022-09-09T01:28:03;26.00;99.90
56298;DHT22;42208;6.376;-10.782;2022-09-09T01:30:39;26.00;99.90
56298;DHT22;42208;6.376;-10.782;2022-09-09T01:33:16;26.00;99.90
56298;DHT22;42208;6.376;-10.782;2022-09-09T01:36:02;26.00;99.90
56298;DHT22;42208;6.376;-10.782;2022-09-09T01:38:51;26.00;99.90
56298;DHT22;42208;6.376;-10.782;2022-09-09T01:41:36;26.00;99.90
56298;DHT22;42208;6.376;-10.782;2022-09-09T01:44:10;25.90;99.90
56298;DHT22;42208;6.376;-10.782;2022-09-09T01:46:42;25.90;99.90
56298;DHT22;42208;6.376;-10.782;2022-09-09T01:49:16;26.00;99.90
56298;DHT22;42208;6.376;-10.782;2022-09-09T01:51:50;25.90;99.90
56298;DHT22;42208;6.376;-10.782;2022-09-09T01:54:31;25.90;99.90
56298;DHT22;42208;6.376;-10.782;2022-09-09T02:05:38;25.90;99.90
56298;DHT22;42208;6.376;-10.782;2022-09-09T02:08:29;25.90;99.90
56298;DHT22;42208;6.376;-10.782;2022-09-09T02:11:15;25.90;99.90
56298;DHT22;42208;6.376;-10.782;2022-09-09T02:14:15;25.90;99.90
56298;DHT22;42208;6.376;-10.782;2022-09-09T02:22:02;25.90;99.90
56298;DHT22;42208;6.376;-10.782;2022-09-09T02:24:39;25.90;99.90
56298;DHT22;42208;6.376;-10.782;2022-09-09T02:27:16;25.90;99.90
56298;DHT22;42208;6.376;-10.782;2022-09-09T02:29:45;25.90;99.90
56298;DHT22;42208;6.376;-10.782;2022-09-09T02:32:19;25.90;99.90
56298;DHT22;42208;6.376;-10.782;2022-09-09T02:34:53;25.90;99.90
56298;DHT22;42208;6.376;-10.782;2022-09-09T02:37:28;25.90;99.90
56298;DHT22;42208;6.376;-10.782;2022-09-09T02:40:22;25.90;99.90
56298;DHT22;42208;6.376;-10.782;2022-09-09T02:42:58;25.90;99.90
56298;DHT22;42208;6.376;-10.782;2022-09-09T02:45:34;25.90;99.90
56298;DHT22;42208;6.376;-10.782;2022-09-09T02:48:22;25.90;99.90
56298;DHT22;42208;6.376;-10.782;2022-09-09T02:51:32;25.90;99.90
56298;DHT22;42208;6.376;-10.782;2022-09-09T02:56:53;25.90;99.90
56298;DHT22;42208;6.376;-10.782;2022-09-09T02:59:27;25.90;99.90
56298;DHT22;42208;6.376;-10.782;2022-09-09T03:02:14;25.90;99.90
56298;DHT22;42208;6.376;-10.782;2022-09-09T03:04:46;25.90;99.90
56298;DHT22;42208;6.376;-10.782;2022-09-09T03:07:14;25.90;99.90
56298;DHT22;42208;6.376;-10.782;2022-09-09T03:09:43;25.90;99.90
56298;DHT22;42208;6.376;-10.782;2022-09-09T03:12:11;25.90;99.90
56298;DHT22;42208;6.376;-10.782;2022-09-09T03:14:40;25.90;99.90
56298;DHT22;42208;6.376;-10.782;2022-09-09T03:17:08;25.90;99.90
56298;DHT22;42208;6.376;-10.782;2022-09-09T03:19:46;25.90;99.90
56298;DHT22;42208;6.376;-10.782;2022-09-09T03:22:14;25.90;99.90
56298;DHT22;42208;6.376;-10.782;2022-09-09T03:24:44;25.90;99.90
56298;DHT22;42208;6.376;-10.782;2022-09-09T03:27:13;25.90;99.90
56298;DHT22;42208;6.376;-10.782;2022-09-09T03:29:41;25.90;99.90
56298;DHT22;42208;6.376;-10.782;2022-09-09T03:32:13;25.90;99.90
56298;DHT22;42208;6.376;-10.782;2022-09-09T03:34:42;25.90;99.90
56298;DHT22;42208;6.376;-10.782;2022-09-09T03:37:13;25.90;99.90
56298;DHT22;42208;6.376;-10.782;2022-09-09T03:39:41;25.90;99.90
56298;DHT22;42208;6.376;-10.782;2022-09-09T03:42:12;25.90;99.90
56298;DHT22;42208;6.376;-10.782;2022-09-09T03:44:41;25.90;99.90
56298;DHT22;42208;6.376;-10.782;2022-09-09T03:47:09;25.90;99.90
56298;DHT22;42208;6.376;-10.782;2022-09-09T03:49:38;25.90;99.90
56298;DHT22;42208;6.376;-10.782;2022-09-09T03:52:06;25.90;99.90
56298;DHT22;42208;6.376;-10.782;2022-09-09T03:54:36;25.90;99.90
56298;DHT22;42208;6.376;-10.782;2022-09-09T03:57:05;25.90;99.90
56298;DHT22;42208;6.376;-10.782;2022-09-09T03:59:33;25.90;99.90
56298;DHT22;42208;6.376;-10.782;2022-09-09T04:02:03;25.90;99.90
56298;DHT22;42208;6.376;-10.782;2022-09-09T04:04:31;25.90;99.90
56298;DHT22;42208;6.376;-10.782;2022-09-09T04:06:59;25.90;99.90
56298;DHT22;42208;6.376;-10.782;2022-09-09T04:09:27;25.80;99.90
56298;DHT22;42208;6.376;-10.782;2022-09-09T04:11:56;25.80;99.90
56298;DHT22;42208;6.376;-10.782;2022-09-09T04:14:24;25.80;99.90
56298;DHT22;42208;6.376;-10.782;2022-09-09T04:16:52;25.90;99.90
56298;DHT22;42208;6.376;-10.782;2022-09-09T04:19:20;25.90;99.90
56298;DHT22;42208;6.376;-10.782;2022-09-09T04:21:49;25.80;99.90
56298;DHT22;42208;6.376;-10.782;2022-09-09T04:24:20;25.80;99.90
56298;DHT22;42208;6.376;-10.782;2022-09-09T04:26:50;25.90;99.90
56298;DHT22;42208;6.376;-10.782;2022-09-09T04:29:18;25.80;99.90
56298;DHT22;42208;6.376;-10.782;2022-09-09T04:31:46;25.80;99.90
56298;DHT22;42208;6.376;-10.782;2022-09-09T04:34:15;25.80;99.90
56298;DHT22;42208;6.376;-10.782;2022-09-09T04:36:44;25.80;99.90
56298;DHT22;42208;6.376;-10.782;2022-09-09T04:39:12;25.80;99.90
56298;DHT22;42208;6.376;-10.782;2022-09-09T04:41:40;25.80;99.90
56298;DHT22;42208;6.376;-10.782;2022-09-09T04:44:10;25.80;99.90
56298;DHT22;42208;6.376;-10.782;2022-09-09T04:46:38;25.80;99.90
56298;DHT22;42208;6.376;-10.782;2022-09-09T04:49:07;25.80;99.90
56298;DHT22;42208;6.376;-10.782;2022-09-09T04:51:42;25.80;99.90
56298;DHT22;42208;6.376;-10.782;2022-09-09T04:56:07;25.80;99.90
56298;DHT22;42208;6.376;-10.782;2022-09-09T04:58:41;25.90;99.90
56298;DHT22;42208;6.376;-10.782;2022-09-09T05:01:12;25.80;99.90
56298;DHT22;42208;6.376;-10.782;2022-09-09T05:03:44;25.80;99.90
56298;DHT22;42208;6.376;-10.782;2022-09-09T05:06:20;25.70;99.90
56298;DHT22;42208;6.376;-10.782;2022-09-09T05:08:57;25.70;99.90
56298;DHT22;42208;6.376;-10.782;2022-09-09T05:11:30;25.80;99.90
56298;DHT22;42208;6.376;-10.782;2022-09-09T05:14:19;25.70;99.90
56298;DHT22;42208;6.376;-10.782;2022-09-09T05:16:47;25.80;99.90
56298;DHT22;42208;6.376;-10.782;2022-09-09T05:19:16;25.70;99.90
56298;DHT22;42208;6.376;-10.782;2022-09-09T05:21:47;25.70;99.90
56298;DHT22;42208;6.376;-10.782;2022-09-09T05:24:18;25.70;99.90
56298;DHT22;42208;6.376;-10.782;2022-09-09T05:26:50;25.70;99.90
56298;DHT22;42208;6.376;-10.782;2022-09-09T05:29:18;25.80;99.90
56298;DHT22;42208;6.376;-10.782;2022-09-09T05:31:47;25.70;99.90
56298;DHT22;42208;6.376;-10.782;2022-09-09T05:34:18;25.70;99.90
56298;DHT22;42208;6.376;-10.782;2022-09-09T05:36:47;25.70;99.90
56298;DHT22;42208;6.376;-10.782;2022-09-09T05:39:16;25.70;99.90
56298;DHT22;42208;6.376;-10.782;2022-09-09T05:41:44;25.70;99.90
56298;DHT22;42208;6.376;-10.782;2022-09-09T05:44:13;25.80;99.90
56298;DHT22;42208;6.376;-10.782;2022-09-09T05:46:42;25.70;99.90
56298;DHT22;42208;6.376;-10.782;2022-09-09T05:49:12;25.80;99.90
56298;DHT22;42208;6.376;-10.782;2022-09-09T05:51:41;25.80;99.90
56298;DHT22;42208;6.376;-10.782;2022-09-09T05:54:11;25.80;99.90
56298;DHT22;42208;6.376;-10.782;2022-09-09T05:56:43;25.80;99.90
56298;DHT22;42208;6.376;-10.782;2022-09-09T05:59:16;25.80;99.90
56298;DHT22;42208;6.376;-10.782;2022-09-09T06:01:44;25.80;99.90
56298;DHT22;42208;6.376;-10.782;2022-09-09T06:04:20;25.90;99.90
56298;DHT22;42208;6.376;-10.782;2022-09-09T06:06:49;25.80;99.90
56298;DHT22;42208;6.376;-10.782;2022-09-09T06:09:20;25.80;99.90
56298;DHT22;42208;6.376;-10.782;2022-09-09T06:11:49;25.80;99.90
56298;DHT22;42208;6.376;-10.782;2022-09-09T06:14:19;25.80;99.90
56298;DHT22;42208;6.376;-10.782;2022-09-09T06:16:48;25.70;99.90
56298;DHT22;42208;6.376;-10.782;2022-09-09T06:19:26;25.70;99.90
56298;DHT22;42208;6.376;-10.782;2022-09-09T06:21:57;25.70;99.90
56298;DHT22;42208;6.376;-10.782;2022-09-09T06:24:28;25.70;99.90
56298;DHT22;42208;6.376;-10.782;2022-09-09T06:26:57;25.70;99.90
56298;DHT22;42208;6.376;-10.782;2022-09-09T06:29:29;25.70;99.90
56298;DHT22;42208;6.376;-10.782;2022-09-09T06:31:57;25.70;99.90
56298;DHT22;42208;6.376;-10.782;2022-09-09T06:34:26;25.70;99.90
56298;DHT22;42208;6.376;-10.782;2022-09-09T06:36:57;25.70;99.90
56298;DHT22;42208;6.376;-10.782;2022-09-09T06:39:30;25.70;99.90
56298;DHT22;42208;6.376;-10.782;2022-09-09T06:41:59;25.60;99.90
56298;DHT22;42208;6.376;-10.782;2022-09-09T06:44:45;25.60;99.90
56298;DHT22;42208;6.376;-10.782;2022-09-09T06:47:34;25.60;99.90
56298;DHT22;42208;6.376;-10.782;2022-09-09T06:50:03;25.60;99.90
56298;DHT22;42208;6.376;-10.782;2022-09-09T06:52:33;25.70;99.90
56298;DHT22;42208;6.376;-10.782;2022-09-09T06:55:03;25.70;99.90
56298;DHT22;42208;6.376;-10.782;2022-09-09T06:57:33;25.70;99.90
56298;DHT22;42208;6.376;-10.782;2022-09-09T07:00:13;25.80;99.90
56298;DHT22;42208;6.376;-10.782;2022-09-09T07:02:41;25.80;99.90
56298;DHT22;42208;6.376;-10.782;2022-09-09T07:05:11;25.80;99.90
56298;DHT22;42208;6.376;-10.782;2022-09-09T07:07:42;25.80;99.90
56298;DHT22;42208;6.376;-10.782;2022-09-09T07:10:12;25.90;99.90
56298;DHT22;42208;6.376;-10.782;2022-09-09T07:12:40;25.80;99.90
56298;DHT22;42208;6.376;-10.782;2022-09-09T07:15:11;25.80;99.90
56298;DHT22;42208;6.376;-10.782;2022-09-09T07:17:43;25.90;99.90
56298;DHT22;42208;6.376;-10.782;2022-09-09T07:20:11;25.90;99.90
56298;DHT22;42208;6.376;-10.782;2022-09-09T07:22:40;25.90;99.90
56298;DHT22;42208;6.376;-10.782;2022-09-09T07:25:10;25.90;99.90
56298;DHT22;42208;6.376;-10.782;2022-09-09T07:27:38;25.90;99.90
56298;DHT22;42208;6.376;-10.782;2022-09-09T07:30:07;25.90;99.90
56298;DHT22;42208;6.376;-10.782;2022-09-09T07:32:35;25.90;99.90
56298;DHT22;42208;6.376;-10.782;2022-09-09T07:35:05;25.90;99.90
56298;DHT22;42208;6.376;-10.782;2022-09-09T07:37:36;25.90;99.90
56298;DHT22;42208;6.376;-10.782;2022-09-09T07:40:05;25.90;99.90
56298;DHT22;42208;6.376;-10.782;2022-09-09T07:42:34;25.90;99.90
56298;DHT22;42208;6.376;-10.782;2022-09-09T07:45:04;25.90;99.90
56298;DHT22;42208;6.376;-10.782;2022-09-09T07:47:32;25.90;99.90
56298;DHT22;42208;6.376;-10.782;2022-09-09T07:50:02;26.00;99.90
56298;DHT22;42208;6.376;-10.782;2022-09-09T07:52:33;26.10;99.90
56298;DHT22;42208;6.376;-10.782;2022-09-09T07:55:04;26.10;99.90
56298;DHT22;42208;6.376;-10.782;2022-09-09T07:57:33;26.10;99.90
56298;DHT22;42208;6.376;-10.782;2022-09-09T08:00:03;26.20;99.90
56298;DHT22;42208;6.376;-10.782;2022-09-09T08:02:38;26.30;99.90
56298;DHT22;42208;6.376;-10.782;2022-09-09T08:05:08;26.30;99.90
56298;DHT22;42208;6.376;-10.782;2022-09-09T08:07:39;26.40;99.90
56298;DHT22;42208;6.376;-10.782;2022-09-09T08:10:07;26.40;99.90
56298;DHT22;42208;6.376;-10.782;2022-09-09T08:12:38;26.40;99.90
56298;DHT22;42208;6.376;-10.782;2022-09-09T08:15:22;26.40;99.90
56298;DHT22;42208;6.376;-10.782;2022-09-09T08:17:51;26.50;99.90
56298;DHT22;42208;6.376;-10.782;2022-09-09T08:20:19;26.60;99.90
56298;DHT22;42208;6.376;-10.782;2022-09-09T08:22:47;26.60;99.90
56298;DHT22;42208;6.376;-10.782;2022-09-09T08:25:16;26.60;99.90
56298;DHT22;42208;6.376;-10.782;2022-09-09T08:27:44;26.60;99.90
56298;DHT22;42208;6.376;-10.782;2022-09-09T08:30:13;26.60;99.90
56298;DHT22;42208;6.376;-10.782;2022-09-09T08:32:41;26.70;99.90
56298;DHT22;42208;6.376;-10.782;2022-09-09T08:35:12;26.70;99.90
56298;DHT22;42208;6.376;-10.782;2022-09-09T08:37:41;26.80;99.90
56298;DHT22;42208;6.376;-10.782;2022-09-09T08:40:19;26.90;99.90
56298;DHT22;42208;6.376;-10.782;2022-09-09T08:42:51;26.80;99.90
56298;DHT22;42208;6.376;-10.782;2022-09-09T08:45:42;26.90;99.90
56298;DHT22;42208;6.376;-10.782;2022-09-09T08:48:39;26.90;99.90
56298;DHT22;42208;6.376;-10.782;2022-09-09T08:51:12;27.00;99.90
56298;DHT22;42208;6.376;-10.782;2022-09-09T08:53:46;27.10;99.90
56298;DHT22;42208;6.376;-10.782;2022-09-09T08:56:21;27.10;99.90
56298;DHT22;42208;6.376;-10.782;2022-09-09T08:58:54;27.20;99.90
56298;DHT22;42208;6.376;-10.782;2022-09-09T09:02:02;27.20;99.90
56298;DHT22;42208;6.376;-10.782;2022-09-09T09:04:55;27.10;99.90
56298;DHT22;42208;6.376;-10.782;2022-09-09T09:14:02;26.90;99.90
56298;DHT22;42208;6.376;-10.782;2022-09-09T09:19:16;26.90;99.90
56298;DHT22;42208;6.376;-10.782;2022-09-09T09:22:04;26.80;99.90
56298;DHT22;42208;6.376;-10.782;2022-09-09T09:24:56;26.80;99.90
56298;DHT22;42208;6.376;-10.782;2022-09-09T09:30:25;26.90;99.90
56298;DHT22;42208;6.376;-10.782;2022-09-09T09:33:15;26.90;99.90
56298;DHT22;42208;6.376;-10.782;2022-09-09T09:35:48;27.00;99.90
56298;DHT22;42208;6.376;-10.782;2022-09-09T09:41:05;26.90;99.90
56298;DHT22;42208;6.376;-10.782;2022-09-09T09:43:35;26.90;99.90
56298;DHT22;42208;6.376;-10.782;2022-09-09T09:46:22;26.90;99.90
56298;DHT22;42208;6.376;-10.782;2022-09-09T09:49:03;26.80;99.90
56298;DHT22;42208;6.376;-10.782;2022-09-09T09:51:33;26.80;99.90
56298;DHT22;42208;6.376;-10.782;2022-09-09T09:56:37;26.80;99.90
56298;DHT22;42208;6.376;-10.782;2022-09-09T09:59:23;26.70;99.90
56298;DHT22;42208;6.376;-10.782;2022-09-09T10:02:17;26.80;99.90
56298;DHT22;42208;6.376;-10.782;2022-09-09T10:05:05;26.80;99.90
56298;DHT22;42208;6.376;-10.782;2022-09-09T10:07:35;26.90;99.90
56298;DHT22;42208;6.376;-10.782;2022-09-09T10:10:04;26.90;99.90
56298;DHT22;42208;6.376;-10.782;2022-09-09T10:12:59;26.90;99.90
56298;DHT22;42208;6.376;-10.782;2022-09-09T10:16:04;26.90;99.90
56298;DHT22;42208;6.376;-10.782;2022-09-09T10:18:47;27.00;99.90
56298;DHT22;42208;6.376;-10.782;2022-09-09T10:26:54;26.90;99.90
56298;DHT22;42208;6.376;-10.782;2022-09-09T10:35:26;26.70;99.90
56298;DHT22;42208;6.376;-10.782;2022-09-09T10:52:11;26.70;99.90
56298;DHT22;42208;6.376;-10.782;2022-09-09T11:00:27;26.70;99.90
56298;DHT22;42208;6.376;-10.782;2022-09-09T11:03:03;27.00;99.90
56298;DHT22;42208;6.376;-10.782;2022-09-09T11:05:46;27.20;99.90
56298;DHT22;42208;6.376;-10.782;2022-09-09T11:08:21;27.50;99.90
56298;DHT22;42208;6.376;-10.782;2022-09-09T11:11:11;27.60;99.90
56298;DHT22;42208;6.376;-10.782;2022-09-09T11:17:03;27.80;99.90
56298;DHT22;42208;6.376;-10.782;2022-09-09T11:19:39;27.80;99.90
56298;DHT22;42208;6.376;-10.782;2022-09-09T11:33:42;28.10;99.90
56298;DHT22;42208;6.376;-10.782;2022-09-09T11:39:33;28.20;99.90
56298;DHT22;42208;6.376;-10.782;2022-09-09T11:44:42;28.20;99.90
56298;DHT22;42208;6.376;-10.782;2022-09-09T11:47:28;28.20;99.90
56298;DHT22;42208;6.376;-10.782;2022-09-09T11:50:22;28.20;99.90
56298;DHT22;42208;6.376;-10.782;2022-09-09T11:53:24;28.20;99.90
56298;DHT22;42208;6.376;-10.782;2022-09-09T11:56:08;28.20;99.90
56298;DHT22;42208;6.376;-10.782;2022-09-09T11:58:43;28.20;99.90
56298;DHT22;42208;6.376;-10.782;2022-09-09T12:01:38;28.20;99.90
56298;DHT22;42208;6.376;-10.782;2022-09-09T12:04:09;28.20;99.90
56298;DHT22;42208;6.376;-10.782;2022-09-09T12:09:47;28.40;99.90
56298;DHT22;42208;6.376;-10.782;2022-09-09T12:14:59;28.80;99.90
56298;DHT22;42208;6.376;-10.782;2022-09-09T12:17:30;28.80;99.90
56298;DHT22;42208;6.376;-10.782;2022-09-09T12:23:29;28.90;99.90
56298;DHT22;42208;6.376;-10.782;2022-09-09T12:28:39;28.80;99.90
56298;DHT22;42208;6.376;-10.782;2022-09-09T12:31:21;28.70;99.90
56298;DHT22;42208;6.376;-10.782;2022-09-09T12:33:51;28.70;99.90
56298;DHT22;42208;6.376;-10.782;2022-09-09T12:36:31;28.60;99.90
56298;DHT22;42208;6.376;-10.782;2022-09-09T12:39:18;28.40;99.90
56298;DHT22;42208;6.376;-10.782;2022-09-09T12:41:54;28.10;99.90
56298;DHT22;42208;6.376;-10.782;2022-09-09T12:44:24;27.90;99.90
56298;DHT22;42208;6.376;-10.782;2022-09-09T12:46:53;27.80;99.90
56298;DHT22;42208;6.376;-10.782;2022-09-09T12:49:38;27.70;99.90
56298;DHT22;42208;6.376;-10.782;2022-09-09T12:52:14;27.50;99.90
56298;DHT22;42208;6.376;-10.782;2022-09-09T12:54:46;27.40;99.90
56298;DHT22;42208;6.376;-10.782;2022-09-09T12:57:15;27.50;99.90
56298;DHT22;42208;6.376;-10.782;2022-09-09T12:59:44;27.50;99.90
56298;DHT22;42208;6.376;-10.782;2022-09-09T13:02:19;27.50;99.90
56298;DHT22;42208;6.376;-10.782;2022-09-09T13:04:49;27.50;99.90
56298;DHT22;42208;6.376;-10.782;2022-09-09T13:07:21;27.50;99.90
56298;DHT22;42208;6.376;-10.782;2022-09-09T13:09:49;27.60;99.90
56298;DHT22;42208;6.376;-10.782;2022-09-09T13:12:22;27.60;99.90
56298;DHT22;42208;6.376;-10.782;2022-09-09T13:14:55;27.50;99.90
56298;DHT22;42208;6.376;-10.782;2022-09-09T13:17:27;27.50;99.90
56298;DHT22;42208;6.376;-10.782;2022-09-09T13:19:57;27.50;99.90
56298;DHT22;42208;6.376;-10.782;2022-09-09T13:22:31;27.50;99.90
56298;DHT22;42208;6.376;-10.782;2022-09-09T13:27:41;27.60;99.90
56298;DHT22;42208;6.376;-10.782;2022-09-09T13:30:25;27.60;99.90
56298;DHT22;42208;6.376;-10.782;2022-09-09T13:36:04;27.40;99.90
56298;DHT22;42208;6.376;-10.782;2022-09-09T13:38:53;27.40;99.90
56298;DHT22;42208;6.376;-10.782;2022-09-09T13:41:24;27.40;99.90
56298;DHT22;42208;6.376;-10.782;2022-09-09T13:43:53;27.20;99.90
56298;DHT22;42208;6.376;-10.782;2022-09-09T13:51:46;27.10;99.90
56298;DHT22;42208;6.376;-10.782;2022-09-09T13:54:18;27.00;99.90
56298;DHT22;42208;6.376;-10.782;2022-09-09T13:56:48;27.10;99.90
56298;DHT22;42208;6.376;-10.782;2022-09-09T13:59:18;27.20;99.90
56298;DHT22;42208;6.376;-10.782;2022-09-09T14:01:47;27.20;99.90
56298;DHT22;42208;6.376;-10.782;2022-09-09T14:04:16;27.20;99.90
56298;DHT22;42208;6.376;-10.782;2022-09-09T14:06:44;27.20;99.90
56298;DHT22;42208;6.376;-10.782;2022-09-09T14:09:15;27.20;99.90
56298;DHT22;42208;6.376;-10.782;2022-09-09T14:11:44;27.20;99.90
56298;DHT22;42208;6.376;-10.782;2022-09-09T14:14:13;27.10;99.90
56298;DHT22;42208;6.376;-10.782;2022-09-09T14:16:41;27.00;99.90
56298;DHT22;42208;6.376;-10.782;2022-09-09T14:19:10;27.10;99.90
56298;DHT22;42208;6.376;-10.782;2022-09-09T14:21:39;27.10;99.90
56298;DHT22;42208;6.376;-10.782;2022-09-09T14:24:07;27.10;99.90
56298;DHT22;42208;6.376;-10.782;2022-09-09T14:26:37;27.00;99.90
56298;DHT22;42208;6.376;-10.782;2022-09-09T14:29:06;27.00;99.90
56298;DHT22;42208;6.376;-10.782;2022-09-09T14:31:36;27.10;99.90
56298;DHT22;42208;6.376;-10.782;2022-09-09T14:34:05;27.10;99.90
56298;DHT22;42208;6.376;-10.782;2022-09-09T14:36:33;27.20;99.90
56298;DHT22;42208;6.376;-10.782;2022-09-09T14:39:02;27.30;99.90
56298;DHT22;42208;6.376;-10.782;2022-09-09T14:41:31;27.40;99.90
56298;DHT22;42208;6.376;-10.782;2022-09-09T14:43:59;27.50;99.90
56298;DHT22;42208;6.376;-10.782;2022-09-09T14:46:27;27.50;99.90
56298;DHT22;42208;6.376;-10.782;2022-09-09T14:48:56;27.60;99.90
56298;DHT22;42208;6.376;-10.782;2022-09-09T14:51:25;27.60;99.90
56298;DHT22;42208;6.376;-10.782;2022-09-09T14:53:56;27.60;99.90
56298;DHT22;42208;6.376;-10.782;2022-09-09T14:56:27;27.70;99.90
56298;DHT22;42208;6.376;-10.782;2022-09-09T14:58:57;27.70;99.90
56298;DHT22;42208;6.376;-10.782;2022-09-09T15:01:27;27.80;99.90
56298;DHT22;42208;6.376;-10.782;2022-09-09T15:04:01;27.80;99.90
56298;DHT22;42208;6.376;-10.782;2022-09-09T15:06:34;27.70;99.90
56298;DHT22;42208;6.376;-10.782;2022-09-09T15:09:03;27.70;99.90
56298;DHT22;42208;6.376;-10.782;2022-09-09T15:11:35;27.60;99.90
56298;DHT22;42208;6.376;-10.782;2022-09-09T15:14:08;27.50;99.90
56298;DHT22;42208;6.376;-10.782;2022-09-09T15:16:36;27.30;99.90
56298;DHT22;42208;6.376;-10.782;2022-09-09T15:19:06;27.10;99.90
56298;DHT22;42208;6.376;-10.782;2022-09-09T15:21:36;27.00;99.90
56298;DHT22;42208;6.376;-10.782;2022-09-09T15:24:05;26.90;99.90
56298;DHT22;42208;6.376;-10.782;2022-09-09T15:26:33;26.60;99.90
56298;DHT22;42208;6.376;-10.782;2022-09-09T15:29:02;26.70;99.90
56298;DHT22;42208;6.376;-10.782;2022-09-09T15:31:31;26.70;99.90
56298;DHT22;42208;6.376;-10.782;2022-09-09T15:34:02;26.60;99.90
56298;DHT22;42208;6.376;-10.782;2022-09-09T15:36:32;26.70;99.90
56298;DHT22;42208;6.376;-10.782;2022-09-09T15:39:02;26.60;99.90
56298;DHT22;42208;6.376;-10.782;2022-09-09T15:41:31;26.60;99.90
56298;DHT22;42208;6.376;-10.782;2022-09-09T15:44:00;26.60;99.90
56298;DHT22;42208;6.376;-10.782;2022-09-09T15:46:36;26.60;99.90
56298;DHT22;42208;6.376;-10.782;2022-09-09T15:49:10;26.60;99.90
56298;DHT22;42208;6.376;-10.782;2022-09-09T15:51:41;26.60;99.90
56298;DHT22;42208;6.376;-10.782;2022-09-09T15:54:16;26.50;99.90
56298;DHT22;42208;6.376;-10.782;2022-09-09T15:56:46;26.50;99.90
56298;DHT22;42208;6.376;-10.782;2022-09-09T15:59:14;26.50;99.90
56298;DHT22;42208;6.376;-10.782;2022-09-09T16:01:43;26.60;99.90
56298;DHT22;42208;6.376;-10.782;2022-09-09T16:04:12;26.60;99.90
56298;DHT22;42208;6.376;-10.782;2022-09-09T16:06:40;26.60;99.90
56298;DHT22;42208;6.376;-10.782;2022-09-09T16:09:09;26.60;99.90
56298;DHT22;42208;6.376;-10.782;2022-09-09T16:11:38;26.60;99.90
56298;DHT22;42208;6.376;-10.782;2022-09-09T16:14:07;26.60;99.90
56298;DHT22;42208;6.376;-10.782;2022-09-09T16:16:36;26.60;99.90
56298;DHT22;42208;6.376;-10.782;2022-09-09T16:19:06;26.60;99.90
56298;DHT22;42208;6.376;-10.782;2022-09-09T16:21:56;26.50;99.90
56298;DHT22;42208;6.376;-10.782;2022-09-09T16:24:24;26.50;99.90
56298;DHT22;42208;6.376;-10.782;2022-09-09T16:26:55;26.50;99.90
56298;DHT22;42208;6.376;-10.782;2022-09-09T16:29:23;26.50;99.90
56298;DHT22;42208;6.376;-10.782;2022-09-09T16:31:52;26.60;99.90
56298;DHT22;42208;6.376;-10.782;2022-09-09T16:34:21;26.60;99.90
56298;DHT22;42208;6.376;-10.782;2022-09-09T16:36:49;26.70;99.90
56298;DHT22;42208;6.376;-10.782;2022-09-09T16:39:19;26.60;99.90
56298;DHT22;42208;6.376;-10.782;2022-09-09T16:41:48;26.70;99.90
56298;DHT22;42208;6.376;-10.782;2022-09-09T16:44:17;26.70;99.90
56298;DHT22;42208;6.376;-10.782;2022-09-09T16:46:48;26.70;99.90
56298;DHT22;42208;6.376;-10.782;2022-09-09T16:49:16;26.70;99.90
56298;DHT22;42208;6.376;-10.782;2022-09-09T16:51:47;26.70;99.90
56298;DHT22;42208;6.376;-10.782;2022-09-09T16:54:16;26.70;99.90
56298;DHT22;42208;6.376;-10.782;2022-09-09T16:56:47;26.70;99.90
56298;DHT22;42208;6.376;-10.782;2022-09-09T16:59:20;26.70;99.90
56298;DHT22;42208;6.376;-10.782;2022-09-09T17:01:50;26.70;99.90
56298;DHT22;42208;6.376;-10.782;2022-09-09T17:04:21;26.70;99.90
56298;DHT22;42208;6.376;-10.782;2022-09-09T17:06:52;26.70;99.90
56298;DHT22;42208;6.376;-10.782;2022-09-09T17:09:21;26.70;99.90
56298;DHT22;42208;6.376;-10.782;2022-09-09T17:11:50;26.60;99.90
56298;DHT22;42208;6.376;-10.782;2022-09-09T17:14:21;26.60;99.90
56298;DHT22;42208;6.376;-10.782;2022-09-09T17:16:50;26.50;99.90
56298;DHT22;42208;6.376;-10.782;2022-09-09T17:19:19;26.40;99.90
56298;DHT22;42208;6.376;-10.782;2022-09-09T17:21:47;26.30;99.90
56298;DHT22;42208;6.376;-10.782;2022-09-09T17:24:35;26.30;99.90
56298;DHT22;42208;6.376;-10.782;2022-09-09T17:27:04;26.10;99.90
56298;DHT22;42208;6.376;-10.782;2022-09-09T17:29:32;25.90;99.90
56298;DHT22;42208;6.376;-10.782;2022-09-09T17:32:00;25.70;99.90
56298;DHT22;42208;6.376;-10.782;2022-09-09T17:34:29;25.60;99.90
56298;DHT22;42208;6.376;-10.782;2022-09-09T17:36:57;25.50;99.90
56298;DHT22;42208;6.376;-10.782;2022-09-09T17:39:25;25.30;99.90
56298;DHT22;42208;6.376;-10.782;2022-09-09T17:41:53;25.10;99.90
56298;DHT22;42208;6.376;-10.782;2022-09-09T17:44:22;25.00;99.90
56298;DHT22;42208;6.376;-10.782;2022-09-09T17:46:50;24.80;99.90
56298;DHT22;42208;6.376;-10.782;2022-09-09T17:49:18;24.90;99.90
56298;DHT22;42208;6.376;-10.782;2022-09-09T17:51:47;24.80;99.90
56298;DHT22;42208;6.376;-10.782;2022-09-09T17:54:17;24.80;99.90
56298;DHT22;42208;6.376;-10.782;2022-09-09T17:56:46;24.90;99.90
56298;DHT22;42208;6.376;-10.782;2022-09-09T17:59:17;24.80;99.90
56298;DHT22;42208;6.376;-10.782;2022-09-09T18:01:47;24.80;99.90
56298;DHT22;42208;6.376;-10.782;2022-09-09T18:04:17;24.80;99.90
56298;DHT22;42208;6.376;-10.782;2022-09-09T18:06:48;24.70;99.90
56298;DHT22;42208;6.376;-10.782;2022-09-09T18:09:22;24.70;99.90
56298;DHT22;42208;6.376;-10.782;2022-09-09T18:11:53;24.50;99.90
56298;DHT22;42208;6.376;-10.782;2022-09-09T18:14:25;24.50;99.90
56298;DHT22;42208;6.376;-10.782;2022-09-09T18:16:54;24.30;99.90